createdAt,value
2022-11-30T00:02:17.260Z,83.42
2022-11-30T00:04:44.507Z,83.68
2022-11-30T00:07:11.541Z,83.44
2022-11-30T00:09:38.334Z,83.68
2022-11-30T00:12:11.348Z,84.54
2022-11-30T00:14:38.143Z,84.70
2022-11-30T00:17:07.792Z,83.64
2022-11-30T00:19:34.752Z,83.28
2022-11-30T00:22:01.764Z,84.12
2022-11-30T00:24:28.613Z,84.03
2022-11-30T00:26:58.502Z,84.20
2022-11-30T00:29:25.461Z,84.24
2022-11-30T00:31:55.073Z,84.18
2022-11-30T00:34:21.745Z,83.91
2022-11-30T00:36:54.693Z,83.75
2022-11-30T00:39:21.578Z,84.12
2022-11-30T00:41:51.248Z,84.40
2022-11-30T00:44:21.035Z,84.66
2022-11-30T00:46:47.758Z,84.73
2022-11-30T00:49:15.062Z,84.86
2022-11-30T00:51:41.793Z,84.61
2022-11-30T00:54:08.514Z,83.72
2022-11-30T00:56:37.336Z,84.69
2022-11-30T00:59:07.200Z,83.55
2022-11-30T01:01:35.314Z,83.95
2022-11-30T01:04:03.307Z,83.00
2022-11-30T01:06:30.135Z,83.91
2022-11-30T01:08:57.771Z,84.27
2022-11-30T01:11:27.158Z,83.96
2022-11-30T01:14:01.040Z,83.52
2022-11-30T01:16:30.683Z,83.79
2022-11-30T01:18:58.180Z,83.80
2022-11-30T01:21:27.795Z,83.22
2022-11-30T01:23:55.231Z,83.09
2022-11-30T01:26:22.471Z,83.17
2022-11-30T01:28:55.061Z,83.12
2022-11-30T01:31:23.712Z,83.64
2022-11-30T01:33:57.769Z,83.08
2022-11-30T01:36:30.183Z,83.67
2022-11-30T01:38:58.400Z,83.10
2022-11-30T01:41:28.469Z,82.83
2022-11-30T01:44:26.584Z,83.39
2022-11-30T01:47:00.318Z,83.39
2022-11-30T01:49:32.057Z,83.40
2022-11-30T01:52:10.217Z,83.24
2022-11-30T01:54:49.442Z,83.58
2022-11-30T01:57:23.190Z,84.44
2022-11-30T01:59:53.377Z,84.18
2022-11-30T02:02:27.591Z,84.49
2022-11-30T02:04:57.117Z,84.12
2022-11-30T02:07:27.505Z,83.69
2022-11-30T02:09:57.595Z,83.44
2022-11-30T02:12:40.003Z,84.09
2022-11-30T02:15:20.011Z,83.61
2022-11-30T02:18:00.538Z,83.83
2022-11-30T02:20:32.144Z,84.06
2022-11-30T02:23:18.799Z,83.34
2022-11-30T02:25:58.610Z,83.57
2022-11-30T02:28:44.840Z,83.49
2022-11-30T02:31:18.858Z,83.67
2022-11-30T02:33:48.514Z,83.79
2022-11-30T02:36:23.037Z,83.55
2022-11-30T02:38:51.184Z,84.17
2022-11-30T02:41:17.925Z,83.73
2022-11-30T02:43:46.393Z,84.41
2022-11-30T02:46:23.531Z,83.54
2022-11-30T02:49:00.855Z,83.88
2022-11-30T02:51:30.347Z,83.66
2022-11-30T02:53:57.134Z,83.94
2022-11-30T02:56:25.097Z,83.71
2022-11-30T02:58:52.644Z,83.93
2022-11-30T03:01:24.125Z,84.24
2022-11-30T03:06:38.176Z,83.44
2022-11-30T03:09:05.202Z,83.93
2022-11-30T03:11:34.416Z,83.28
2022-11-30T03:14:01.436Z,83.26
2022-11-30T03:16:28.933Z,84.02
2022-11-30T03:18:58.189Z,83.84
2022-11-30T03:21:29.301Z,83.73
2022-11-30T03:23:56.118Z,83.78
2022-11-30T03:26:22.814Z,83.66
2022-11-30T03:28:49.499Z,83.35
2022-11-30T03:31:16.390Z,83.36
2022-11-30T03:33:47.622Z,83.28
2022-11-30T03:36:14.234Z,82.77
2022-11-30T03:38:44.075Z,83.75
2022-11-30T03:41:17.146Z,83.87
2022-11-30T03:43:44.642Z,83.73
2022-11-30T03:46:15.078Z,83.17
2022-11-30T03:48:42.666Z,82.81
2022-11-30T03:51:13.802Z,82.40
2022-11-30T03:53:41.277Z,82.79
2022-11-30T03:56:14.996Z,82.89
2022-11-30T03:58:47.190Z,82.84
2022-11-30T04:01:17.261Z,83.18
2022-11-30T04:03:44.440Z,82.80
2022-11-30T04:06:12.768Z,82.73
2022-11-30T04:08:41.396Z,82.43
2022-11-30T04:11:08.814Z,82.49
2022-11-30T04:13:40.174Z,82.35
2022-11-30T04:16:07.622Z,82.17
2022-11-30T04:18:35.894Z,82.24
2022-11-30T04:21:03.161Z,82.10
2022-11-30T04:23:36.188Z,82.59
2022-11-30T04:26:08.338Z,82.20
2022-11-30T04:28:35.160Z,82.15
2022-11-30T04:31:03.283Z,82.32
2022-11-30T04:33:33.480Z,81.65
2022-11-30T04:36:03.671Z,81.94
2022-11-30T04:38:33.556Z,81.81
2022-11-30T04:41:01.217Z,81.51
2022-11-30T04:43:28.185Z,81.24
2022-11-30T04:45:57.441Z,81.12
2022-11-30T04:48:24.371Z,80.65
2022-11-30T04:50:54.083Z,80.20
2022-11-30T04:53:23.010Z,80.15
2022-11-30T04:55:49.707Z,80.52
2022-11-30T04:58:18.933Z,80.29
2022-11-30T05:00:47.067Z,80.11
2022-11-30T05:03:15.001Z,80.43
2022-11-30T05:05:41.774Z,80.43
2022-11-30T05:08:09.981Z,80.76
2022-11-30T05:10:37.216Z,80.87
2022-11-30T05:13:04.500Z,80.11
2022-11-30T05:15:31.961Z,79.87
2022-11-30T05:18:00.459Z,78.86
2022-11-30T05:20:28.844Z,79.00
2022-11-30T05:22:55.788Z,79.31
2022-11-30T05:25:22.662Z,79.90
2022-11-30T05:27:52.755Z,79.85
2022-11-30T05:30:19.595Z,79.83
2022-11-30T05:32:46.414Z,79.72
2022-11-30T05:35:13.418Z,79.46
2022-11-30T05:37:42.591Z,79.50
2022-11-30T05:40:11.432Z,79.51
2022-11-30T05:42:38.174Z,79.55
2022-11-30T05:45:05.357Z,79.28
2022-11-30T05:47:32.017Z,79.90
2022-11-30T05:50:03.144Z,79.83
2022-11-30T05:52:55.251Z,79.98
2022-11-30T05:55:45.901Z,79.54
2022-11-30T05:58:12.718Z,80.43
2022-11-30T06:00:39.481Z,80.67
2022-11-30T06:03:06.323Z,81.04
2022-11-30T06:05:35.062Z,81.30
2022-11-30T06:08:02.052Z,80.65
2022-11-30T06:10:28.804Z,80.81
2022-11-30T06:12:55.782Z,80.92
2022-11-30T06:15:22.399Z,81.14
2022-11-30T06:17:49.132Z,80.76
2022-11-30T06:20:16.265Z,80.95
2022-11-30T06:22:45.919Z,80.67
2022-11-30T06:25:16.768Z,80.90
2022-11-30T06:27:43.823Z,80.75
2022-11-30T06:30:11.879Z,80.86
2022-11-30T06:32:39.889Z,81.10
2022-11-30T06:35:09.550Z,81.09
2022-11-30T06:37:36.537Z,80.60
2022-11-30T06:40:07.391Z,81.11
2022-11-30T06:42:35.435Z,80.65
2022-11-30T06:45:03.494Z,80.26
2022-11-30T06:47:30.314Z,80.92
2022-11-30T06:49:57.118Z,79.72
2022-11-30T06:52:23.992Z,78.65
2022-11-30T06:54:51.128Z,78.28
2022-11-30T06:57:18.162Z,78.86
2022-11-30T06:59:46.832Z,77.63
2022-11-30T07:02:18.907Z,77.44
2022-11-30T07:04:46.908Z,77.46
2022-11-30T07:07:16.324Z,77.33
2022-11-30T07:09:45.706Z,77.58
2022-11-30T07:12:12.692Z,76.84
2022-11-30T07:14:47.535Z,76.48
2022-11-30T07:17:14.667Z,76.16
2022-11-30T07:19:41.352Z,76.01
2022-11-30T07:22:09.803Z,76.79
2022-11-30T07:24:56.250Z,76.27
2022-11-30T07:27:23.132Z,75.64
2022-11-30T07:29:51.782Z,76.02
2022-11-30T07:32:19.582Z,75.89
2022-11-30T07:34:46.864Z,75.72
2022-11-30T07:37:15.829Z,76.44
2022-11-30T07:39:42.585Z,76.14
2022-11-30T07:42:09.503Z,76.46
2022-11-30T07:44:36.221Z,76.33
2022-11-30T07:47:06.155Z,76.39
2022-11-30T07:49:35.297Z,76.93
2022-11-30T07:52:04.721Z,76.53
2022-11-30T07:54:31.646Z,75.99
2022-11-30T07:56:58.435Z,77.05
2022-11-30T07:59:25.174Z,76.78
2022-11-30T08:01:55.295Z,76.37
2022-11-30T08:04:22.271Z,76.41
2022-11-30T08:06:49.927Z,76.14
2022-11-30T08:09:20.645Z,75.93
2022-11-30T08:11:51.171Z,76.02
2022-11-30T08:14:23.835Z,76.18
2022-11-30T08:16:51.903Z,76.62
2022-11-30T08:19:19.850Z,76.45
2022-11-30T08:21:48.120Z,75.59
2022-11-30T08:24:15.280Z,75.82
2022-11-30T08:26:45.043Z,76.27
2022-11-30T08:29:14.844Z,76.66
2022-11-30T08:31:42.143Z,76.40
2022-11-30T08:34:12.972Z,76.22
2022-11-30T08:36:41.006Z,76.09
2022-11-30T08:39:13.303Z,75.38
2022-11-30T08:41:40.447Z,76.15
2022-11-30T08:44:07.609Z,76.21
2022-11-30T08:46:51.038Z,76.50
2022-11-30T08:49:22.517Z,76.26
2022-11-30T08:57:31.758Z,75.17
2022-11-30T08:59:58.712Z,75.54
2022-11-30T09:02:25.780Z,74.65
2022-11-30T09:04:56.170Z,75.15
2022-11-30T09:07:23.311Z,75.15
2022-11-30T09:09:50.718Z,75.21
2022-11-30T09:12:18.147Z,76.42
2022-11-30T09:14:46.794Z,76.22
2022-11-30T09:17:15.676Z,76.40
2022-11-30T09:19:42.737Z,76.26
2022-11-30T09:22:10.511Z,76.64
2022-11-30T09:24:38.249Z,75.80
2022-11-30T09:27:04.956Z,76.05
2022-11-30T09:29:31.781Z,76.13
2022-11-30T09:31:58.426Z,76.16
2022-11-30T09:34:25.201Z,75.91
2022-11-30T09:36:52.174Z,76.28
2022-11-30T09:39:18.953Z,76.04
2022-11-30T09:42:15.588Z,76.94
2022-11-30T09:45:12.834Z,75.85
2022-11-30T09:47:48.764Z,76.85
2022-11-30T09:50:22.003Z,76.49
2022-11-30T09:53:03.170Z,77.31
2022-11-30T09:55:55.134Z,77.44
2022-11-30T09:58:43.768Z,77.46
2022-11-30T10:01:21.888Z,78.68
2022-11-30T10:03:51.880Z,78.00
2022-11-30T10:06:31.934Z,78.41
2022-11-30T10:09:04.843Z,79.00
2022-11-30T10:11:47.501Z,77.34
2022-11-30T10:14:23.304Z,77.03
2022-11-30T10:16:58.919Z,77.16
2022-11-30T10:19:28.618Z,77.12
2022-11-30T10:22:23.093Z,77.13
2022-11-30T10:25:08.594Z,76.75
2022-11-30T10:27:50.164Z,77.69
2022-11-30T10:30:30.960Z,78.66
2022-11-30T10:33:26.442Z,78.40
2022-11-30T10:36:01.743Z,78.80
2022-11-30T10:38:30.828Z,78.55
2022-11-30T10:41:06.701Z,78.51
2022-11-30T10:44:12.568Z,78.28
2022-11-30T10:46:45.879Z,78.41
2022-11-30T10:49:22.744Z,79.04
2022-11-30T10:51:55.021Z,79.33
2022-11-30T10:54:26.015Z,78.75
2022-11-30T10:56:53.770Z,79.13
2022-11-30T10:59:27.972Z,78.40
2022-11-30T11:01:55.040Z,79.23
2022-11-30T11:04:26.374Z,79.26
2022-11-30T11:06:56.923Z,78.98
2022-11-30T11:09:42.428Z,78.24
2022-11-30T11:12:31.211Z,77.03
2022-11-30T11:15:19.888Z,76.86
2022-11-30T11:17:50.958Z,76.80
2022-11-30T11:20:34.729Z,76.19
2022-11-30T11:23:05.192Z,76.01
2022-11-30T11:25:43.224Z,75.81
2022-11-30T11:28:21.827Z,75.93
2022-11-30T11:30:57.558Z,75.98
2022-11-30T11:33:29.707Z,75.25
2022-11-30T11:36:14.421Z,74.71
2022-11-30T11:38:45.550Z,74.32
2022-11-30T11:41:44.498Z,73.92
2022-11-30T11:44:11.166Z,73.78
2022-11-30T11:47:19.395Z,72.52
2022-11-30T11:49:48.240Z,73.10
2022-11-30T11:52:22.731Z,73.24
2022-11-30T11:54:58.852Z,73.77
2022-11-30T11:57:59.088Z,73.79
2022-11-30T12:00:26.301Z,74.04
2022-11-30T12:03:23.311Z,72.35
2022-11-30T12:05:59.327Z,71.79
2022-11-30T12:08:52.990Z,70.66
2022-11-30T12:11:29.166Z,71.36
2022-11-30T12:13:56.114Z,71.75
2022-11-30T12:16:47.492Z,69.93
2022-11-30T12:19:22.058Z,70.42
2022-11-30T12:22:29.382Z,69.27
2022-11-30T12:25:24.171Z,70.42
2022-11-30T12:28:09.795Z,70.43
2022-11-30T12:30:36.394Z,69.99
2022-11-30T12:33:20.387Z,69.39
2022-11-30T12:35:59.669Z,69.83
2022-11-30T12:38:40.643Z,69.63
2022-11-30T12:41:38.606Z,68.82
2022-11-30T12:44:46.130Z,68.54
2022-11-30T12:47:39.443Z,67.71
2022-11-30T12:50:14.749Z,67.79
2022-11-30T12:53:09.023Z,68.14
2022-11-30T12:55:54.621Z,67.56
2022-11-30T12:58:35.858Z,68.19
2022-11-30T13:01:16.105Z,67.28
2022-11-30T13:03:46.069Z,67.91
2022-11-30T13:06:20.695Z,67.37
2022-11-30T13:08:57.572Z,67.65
2022-11-30T13:11:34.069Z,68.34
2022-11-30T13:14:01.389Z,68.17
2022-11-30T13:16:34.641Z,67.66
2022-11-30T13:19:08.040Z,67.45
2022-11-30T13:21:53.987Z,67.86
2022-11-30T13:24:35.531Z,67.29
2022-11-30T13:27:11.718Z,67.39
2022-11-30T13:30:04.910Z,68.46
2022-11-30T13:35:29.601Z,67.60
2022-11-30T13:38:34.724Z,67.53
2022-11-30T13:41:04.031Z,67.60
2022-11-30T13:43:36.315Z,68.05
2022-11-30T13:46:15.277Z,67.59
2022-11-30T13:48:45.161Z,67.91
2022-11-30T13:51:18.238Z,68.14
2022-11-30T13:53:44.797Z,68.11
2022-11-30T13:56:20.601Z,68.54
2022-11-30T13:59:22.793Z,68.78
2022-11-30T14:01:50.594Z,67.97
2022-11-30T14:04:20.060Z,67.81
2022-11-30T14:06:59.498Z,68.86
2022-11-30T14:09:41.721Z,68.56
2022-11-30T14:12:27.267Z,68.16
2022-11-30T14:14:54.248Z,67.87
2022-11-30T14:17:38.294Z,67.94
2022-11-30T14:20:37.509Z,67.86
2022-11-30T14:23:14.328Z,68.51
2022-11-30T14:25:53.809Z,68.54
2022-11-30T14:28:29.549Z,69.24
2022-11-30T14:30:56.630Z,68.88
2022-11-30T14:33:31.690Z,68.38
2022-11-30T14:36:00.731Z,68.19
2022-11-30T14:38:30.961Z,68.56
2022-11-30T14:40:58.786Z,68.51
2022-11-30T14:43:26.203Z,67.70
2022-11-30T14:46:11.642Z,67.94
2022-11-30T14:48:44.752Z,68.95
2022-11-30T14:51:11.398Z,67.77
2022-11-30T14:53:51.989Z,67.00
2022-11-30T14:56:41.114Z,67.82
2022-11-30T14:59:16.904Z,67.97
2022-11-30T15:01:55.225Z,68.69
2022-11-30T15:04:25.200Z,68.66
2022-11-30T15:06:54.872Z,69.28
2022-11-30T15:09:25.397Z,69.14
2022-11-30T15:11:55.887Z,69.07
2022-11-30T15:14:23.406Z,69.67
2022-11-30T15:16:55.762Z,69.28
2022-11-30T15:19:28.345Z,68.59
2022-11-30T15:22:03.167Z,70.19
2022-11-30T15:24:31.114Z,69.86
2022-11-30T15:27:11.224Z,70.63
2022-11-30T15:29:49.474Z,70.21
2022-11-30T15:32:19.796Z,69.82
2022-11-30T15:35:01.952Z,69.04
2022-11-30T15:37:35.446Z,69.14
2022-11-30T15:40:08.999Z,69.18
2022-11-30T15:42:43.619Z,69.02
2022-11-30T15:45:35.715Z,68.73
2022-11-30T15:48:28.622Z,69.40
2022-11-30T15:50:59.021Z,70.03
2022-11-30T15:53:32.268Z,69.08
2022-11-30T15:56:07.587Z,69.75
2022-11-30T15:58:46.183Z,68.94
2022-11-30T16:01:27.603Z,69.25
2022-11-30T16:04:18.260Z,69.72
2022-11-30T16:06:59.398Z,70.50
2022-11-30T16:09:32.851Z,70.38
2022-11-30T16:12:01.964Z,70.25
2022-11-30T16:14:29.049Z,70.01
2022-11-30T16:17:08.551Z,70.50
2022-11-30T16:19:46.670Z,70.33
2022-11-30T16:22:15.918Z,69.86
2022-11-30T16:24:42.697Z,69.36
2022-11-30T16:27:29.901Z,69.72
2022-11-30T16:29:56.947Z,69.02
2022-11-30T16:32:24.288Z,68.52
2022-11-30T16:34:51.088Z,68.43
2022-11-30T16:37:18.078Z,68.77
2022-11-30T16:39:47.526Z,69.14
2022-11-30T16:42:14.630Z,69.03
2022-11-30T16:44:44.470Z,69.50
2022-11-30T16:47:11.487Z,69.46
2022-11-30T16:49:46.048Z,68.99
2022-11-30T16:52:17.513Z,68.84
2022-11-30T16:54:47.499Z,68.52
2022-11-30T16:57:14.381Z,69.54
2022-11-30T16:59:41.182Z,68.69
2022-11-30T17:02:27.805Z,69.07
2022-11-30T17:05:22.059Z,68.83
2022-11-30T17:07:54.218Z,68.67
2022-11-30T17:10:29.382Z,68.22
2022-11-30T17:12:56.586Z,67.71
2022-11-30T17:15:24.669Z,68.09
2022-11-30T17:17:51.873Z,68.36
2022-11-30T17:20:18.979Z,68.07
2022-11-30T17:22:45.851Z,68.18
2022-11-30T17:25:18.662Z,68.10
2022-11-30T17:27:46.041Z,68.06
2022-11-30T17:30:18.203Z,67.84
2022-11-30T17:32:45.070Z,67.92
2022-11-30T17:35:12.140Z,68.29
2022-11-30T17:37:38.895Z,67.71
2022-11-30T17:40:07.170Z,67.54
2022-11-30T17:42:34.370Z,67.96
2022-11-30T17:45:01.209Z,67.87
2022-11-30T17:47:28.029Z,68.11
2022-11-30T17:49:55.352Z,68.42
2022-11-30T17:52:23.967Z,68.32
2022-11-30T17:54:51.094Z,68.22
2022-11-30T17:57:18.040Z,68.53
2022-11-30T17:59:45.008Z,69.09
2022-11-30T18:02:13.320Z,68.42
2022-11-30T18:04:40.154Z,67.89
2022-11-30T18:07:11.025Z,68.84
2022-11-30T18:09:42.371Z,68.72
2022-11-30T18:12:10.830Z,69.02
2022-11-30T18:14:37.864Z,68.00
2022-11-30T18:17:04.998Z,68.39
2022-11-30T18:19:31.649Z,68.71
2022-11-30T18:21:58.372Z,68.56
2022-11-30T18:24:25.963Z,68.82
2022-11-30T18:26:55.035Z,69.57
2022-11-30T18:29:23.803Z,68.90
2022-11-30T18:32:01.900Z,68.91
2022-11-30T18:34:29.044Z,69.36
2022-11-30T18:36:55.996Z,68.89
2022-11-30T18:39:22.948Z,68.56
2022-11-30T18:41:50.328Z,68.40
2022-11-30T18:44:19.928Z,69.10
2022-11-30T18:46:46.690Z,68.43
2022-11-30T18:49:13.568Z,68.07
2022-11-30T18:51:40.806Z,67.75
2022-11-30T18:54:10.386Z,68.31
2022-11-30T18:56:38.787Z,67.48
2022-11-30T18:59:08.245Z,68.40
2022-11-30T19:01:36.820Z,68.48
2022-11-30T19:04:07.131Z,67.51
2022-11-30T19:06:39.138Z,67.76
2022-11-30T19:09:09.635Z,68.10
2022-11-30T19:11:40.175Z,67.99
2022-11-30T19:14:10.562Z,67.89
2022-11-30T19:16:40.192Z,67.92
2022-11-30T19:19:14.464Z,68.23
2022-11-30T19:21:47.154Z,67.96
2022-11-30T19:24:16.066Z,67.40
2022-11-30T19:26:45.702Z,67.03
2022-11-30T19:29:13.021Z,67.70
2022-11-30T19:31:40.074Z,67.68
2022-11-30T19:34:12.531Z,67.11
2022-11-30T19:36:40.170Z,66.34
2022-11-30T19:39:07.161Z,66.78
2022-11-30T19:41:38.254Z,67.28
2022-11-30T19:44:05.726Z,66.86
2022-11-30T19:46:36.576Z,67.21
2022-11-30T19:49:04.098Z,66.93
2022-11-30T19:51:31.843Z,66.90
2022-11-30T19:54:04.388Z,66.85
2022-11-30T19:56:34.834Z,66.26
2022-11-30T19:59:06.037Z,66.33
2022-11-30T20:01:34.084Z,66.93
2022-11-30T20:04:01.449Z,66.80
2022-11-30T20:06:31.186Z,66.82
2022-11-30T20:09:04.398Z,66.85
2022-11-30T20:11:34.676Z,65.66
2022-11-30T20:14:02.825Z,66.29
2022-11-30T20:16:32.954Z,66.38
2022-11-30T20:19:04.152Z,65.77
2022-11-30T20:21:35.868Z,66.67
2022-11-30T20:24:09.714Z,66.14
2022-11-30T20:26:42.754Z,66.15
2022-11-30T20:29:18.407Z,66.64
2022-11-30T20:31:47.421Z,66.09
2022-11-30T20:34:14.666Z,65.68
2022-11-30T20:36:42.128Z,65.72
2022-11-30T20:39:11.940Z,66.69
2022-11-30T20:41:39.372Z,66.16
2022-11-30T20:44:16.146Z,66.27
2022-11-30T20:46:46.853Z,65.67
2022-11-30T20:49:19.551Z,66.08
2022-11-30T20:51:52.896Z,66.20
2022-11-30T20:54:27.143Z,65.92
2022-11-30T20:57:05.602Z,65.29
2022-11-30T20:59:35.558Z,65.97
2022-11-30T21:02:10.209Z,66.07
2022-11-30T21:04:38.246Z,65.93
2022-11-30T21:07:07.329Z,66.58
2022-11-30T21:09:34.157Z,66.57
2022-11-30T21:12:01.146Z,67.06
2022-11-30T21:14:28.060Z,66.94
2022-11-30T21:16:58.024Z,67.45
2022-11-30T21:19:29.050Z,67.47
2022-11-30T21:22:00.085Z,66.57
2022-11-30T21:24:30.411Z,67.88
2022-11-30T21:27:01.758Z,67.58
2022-11-30T21:29:28.785Z,67.88
2022-11-30T21:31:55.746Z,68.19
2022-11-30T21:34:23.742Z,68.31
2022-11-30T21:36:52.319Z,68.24
2022-11-30T21:39:19.430Z,67.75
2022-11-30T21:41:51.752Z,67.83
2022-11-30T21:44:18.833Z,68.84
2022-11-30T21:46:53.079Z,68.84
2022-11-30T21:49:24.402Z,68.66
2022-11-30T21:51:54.471Z,69.00
2022-11-30T21:54:21.994Z,68.77
2022-11-30T21:56:52.901Z,69.65
2022-11-30T21:59:21.357Z,69.81
2022-11-30T22:01:48.129Z,69.11
2022-11-30T22:04:22.744Z,68.80
2022-11-30T22:06:58.517Z,69.17
2022-11-30T22:09:37.476Z,68.66
2022-11-30T22:12:04.423Z,69.40
2022-11-30T22:14:31.968Z,69.32
2022-11-30T22:17:01.285Z,69.48
2022-11-30T22:19:28.119Z,69.61
2022-11-30T22:21:54.896Z,69.43
2022-11-30T22:24:21.814Z,68.60
2022-11-30T22:26:51.724Z,68.53
2022-11-30T22:29:25.461Z,68.95
2022-11-30T22:31:54.928Z,69.27
2022-11-30T22:34:24.333Z,68.14
2022-11-30T22:36:51.386Z,68.77
2022-11-30T22:39:28.166Z,69.35
2022-11-30T22:41:56.364Z,69.24
2022-11-30T22:44:43.499Z,69.22
2022-11-30T22:47:13.698Z,69.23
2022-11-30T22:49:45.012Z,69.26
2022-11-30T22:52:12.076Z,68.93
2022-11-30T22:54:40.799Z,67.64
2022-11-30T22:57:08.455Z,68.91
2022-11-30T22:59:35.273Z,68.77
2022-11-30T23:02:05.560Z,68.97
2022-11-30T23:04:36.353Z,68.41
2022-11-30T23:07:06.933Z,68.95
2022-11-30T23:09:33.874Z,68.20
2022-11-30T23:12:00.688Z,68.40
2022-11-30T23:14:27.474Z,67.83
2022-11-30T23:16:54.362Z,68.39
2022-11-30T23:19:24.560Z,67.96
2022-11-30T23:21:51.517Z,68.04
2022-11-30T23:24:20.858Z,68.37
2022-11-30T23:26:53.628Z,68.24
2022-11-30T23:29:23.621Z,67.62
2022-11-30T23:31:53.762Z,68.56
2022-11-30T23:34:22.542Z,67.83
2022-11-30T23:36:51.092Z,68.23
2022-11-30T23:39:21.854Z,68.40
2022-11-30T23:41:50.704Z,67.40
2022-11-30T23:44:33.304Z,67.59
2022-11-30T23:47:00.541Z,67.71
2022-11-30T23:49:27.407Z,68.67
2022-11-30T23:51:54.288Z,68.49
2022-11-30T23:54:27.043Z,67.85
2022-11-30T23:56:54.166Z,68.26
2022-11-30T23:59:21.212Z,68.43
